createdAt,value
2018-02-21T00:00:52.711Z,6.80
2018-02-21T00:03:21.044Z,6.80
2018-02-21T00:05:48.579Z,6.70
2018-02-21T00:08:16.148Z,6.80
2018-02-21T00:10:43.711Z,6.80
2018-02-21T00:13:11.256Z,6.80
2018-02-21T00:15:38.802Z,6.80
2018-02-21T00:18:06.351Z,6.70
2018-02-21T00:20:34.667Z,6.70
2018-02-21T00:23:02.207Z,6.90
2018-02-21T00:25:29.764Z,6.70
2018-02-21T00:27:57.295Z,6.80
2018-02-21T00:30:24.859Z,6.70
2018-02-21T00:32:53.380Z,6.70
2018-02-21T00:35:20.946Z,6.70
2018-02-21T00:37:48.501Z,6.70
2018-02-21T00:40:16.081Z,6.90
2018-02-21T00:42:43.622Z,6.70
2018-02-21T00:45:11.156Z,6.70
2018-02-21T00:47:39.474Z,6.70
2018-02-21T00:50:07.015Z,6.60
2018-02-21T00:52:34.571Z,6.60
2018-02-21T00:55:02.103Z,6.70
2018-02-21T00:57:30.647Z,6.60
2018-02-21T00:59:58.197Z,6.50
2018-02-21T01:02:25.755Z,6.50
2018-02-21T01:04:53.295Z,6.60
2018-02-21T01:07:20.851Z,6.80
2018-02-21T01:09:48.392Z,6.50
2018-02-21T01:12:16.734Z,6.50
2018-02-21T01:14:44.280Z,6.50
2018-02-21T01:17:11.823Z,6.50
2018-02-21T01:19:39.376Z,6.50
2018-02-21T01:22:06.919Z,6.50
2018-02-21T01:24:35.241Z,6.50
2018-02-21T01:27:02.779Z,6.50
2018-02-21T01:29:30.331Z,6.50
2018-02-21T01:31:57.867Z,6.50
2018-02-21T01:34:26.200Z,6.50
2018-02-21T01:36:53.731Z,6.60
2018-02-21T01:39:21.335Z,6.50
2018-02-21T01:41:48.873Z,6.50
2018-02-21T01:44:16.422Z,6.40
2018-02-21T01:46:43.967Z,6.40
2018-02-21T01:49:11.525Z,6.40
2018-02-21T01:51:39.823Z,6.40
2018-02-21T01:54:07.382Z,6.40
2018-02-21T01:56:34.938Z,6.50
2018-02-21T01:59:02.470Z,6.50
2018-02-21T02:01:30.792Z,6.30
2018-02-21T02:03:58.332Z,6.30
2018-02-21T02:06:25.888Z,6.40
2018-02-21T02:08:53.423Z,6.50
2018-02-21T02:11:21.761Z,6.30
2018-02-21T02:13:49.295Z,6.50
2018-02-21T02:16:16.847Z,6.50
2018-02-21T02:18:45.149Z,6.30
2018-02-21T02:21:12.749Z,6.50
2018-02-21T02:23:40.306Z,6.30
2018-02-21T02:26:07.864Z,6.40
2018-02-21T02:28:35.432Z,6.30
2018-02-21T02:31:02.981Z,6.50
2018-02-21T02:33:30.545Z,6.40
2018-02-21T02:35:58.092Z,6.20
2018-02-21T02:38:37.436Z,6.20
2018-02-21T02:41:04.980Z,6.20
2018-02-21T02:43:32.537Z,6.20
2018-02-21T02:46:00.076Z,6.50
2018-02-21T02:48:27.632Z,6.20
2018-02-21T02:50:55.179Z,6.20
2018-02-21T02:53:23.502Z,6.10
2018-02-21T02:55:51.056Z,6.20
2018-02-21T02:58:18.619Z,6.10
2018-02-21T03:00:46.171Z,6.00
2018-02-21T03:03:13.741Z,6.10
2018-02-21T03:05:41.281Z,6.10
2018-02-21T03:08:08.834Z,6.20
2018-02-21T03:10:36.390Z,6.10
2018-02-21T03:13:04.701Z,6.10
2018-02-21T03:15:32.263Z,6.00
2018-02-21T03:17:59.803Z,6.10
2018-02-21T03:20:27.358Z,6.20
2018-02-21T03:22:54.904Z,6.20
2018-02-21T03:25:23.232Z,5.90
2018-02-21T03:27:50.795Z,6.10
2018-02-21T03:30:18.355Z,6.00
2018-02-21T03:32:45.888Z,6.10
2018-02-21T03:35:13.468Z,6.00
2018-02-21T03:37:41.026Z,6.00
2018-02-21T03:40:08.578Z,6.00
2018-02-21T03:42:36.131Z,6.00
2018-02-21T03:45:03.667Z,6.00
2018-02-21T03:47:31.980Z,6.20
2018-02-21T03:49:59.511Z,6.10
2018-02-21T03:52:27.831Z,6.00
2018-02-21T03:54:55.362Z,6.20
2018-02-21T03:57:22.911Z,6.10
2018-02-21T03:59:51.217Z,6.20
2018-02-21T04:02:18.784Z,6.00
2018-02-21T04:04:46.320Z,6.20
2018-02-21T04:07:13.863Z,6.10
2018-02-21T04:09:42.169Z,5.90
2018-02-21T04:12:09.723Z,6.10
2018-02-21T04:14:37.260Z,6.10
2018-02-21T04:17:05.576Z,5.80
2018-02-21T04:19:33.115Z,6.00
2018-02-21T04:22:00.642Z,5.80
2018-02-21T04:24:28.190Z,5.80
2018-02-21T04:26:55.738Z,5.60
2018-02-21T04:29:23.291Z,5.80
2018-02-21T04:31:50.838Z,5.80
2018-02-21T04:34:18.396Z,5.60
2018-02-21T04:36:45.935Z,5.80
2018-02-21T04:39:13.505Z,5.80
2018-02-21T04:41:41.048Z,6.10
2018-02-21T04:44:09.374Z,5.70
2018-02-21T04:46:36.904Z,5.60
2018-02-21T04:51:38.353Z,5.60
2018-02-21T04:54:06.701Z,5.70
2018-02-21T04:56:37.064Z,6.00
2018-02-21T04:59:04.607Z,5.60
2018-02-21T05:01:32.932Z,6.00
2018-02-21T05:04:00.459Z,5.60
2018-02-21T05:06:28.788Z,5.70
2018-02-21T05:08:56.317Z,5.70
2018-02-21T05:11:23.881Z,5.80
2018-02-21T05:13:51.415Z,5.80
2018-02-21T05:16:19.727Z,5.60
2018-02-21T05:18:47.260Z,5.60
2018-02-21T05:21:15.578Z,5.60
2018-02-21T05:23:43.118Z,5.60
2018-02-21T05:26:10.690Z,5.60
2018-02-21T05:28:38.239Z,5.80
2018-02-21T05:31:05.795Z,5.60
2018-02-21T05:33:33.328Z,5.80
2018-02-21T05:36:01.659Z,5.60
2018-02-21T05:38:29.212Z,5.60
2018-02-21T05:40:56.751Z,5.80
2018-02-21T05:43:24.313Z,5.80
2018-02-21T05:45:51.856Z,5.60
2018-02-21T05:48:20.175Z,5.80
2018-02-21T05:50:47.703Z,5.50
2018-02-21T05:53:15.253Z,5.60
2018-02-21T05:55:43.567Z,5.60
2018-02-21T05:58:11.122Z,5.80
2018-02-21T06:00:38.651Z,5.70
2018-02-21T06:03:06.968Z,5.50
2018-02-21T06:05:34.520Z,5.80
2018-02-21T06:08:02.092Z,5.60
2018-02-21T06:10:29.637Z,5.80
2018-02-21T06:12:57.225Z,5.60
2018-02-21T06:15:24.769Z,5.80
2018-02-21T06:17:52.312Z,5.80
2018-02-21T06:20:19.867Z,5.60
2018-02-21T06:22:47.407Z,5.80
2018-02-21T06:25:15.729Z,5.60
2018-02-21T06:27:43.350Z,5.50
2018-02-21T06:30:11.671Z,5.60
2018-02-21T06:32:39.235Z,5.80
2018-02-21T06:35:06.804Z,5.60
2018-02-21T06:37:34.336Z,5.70
2018-02-21T06:40:01.909Z,5.70
2018-02-21T06:42:29.457Z,5.80
2018-02-21T06:44:57.012Z,5.70
2018-02-21T06:47:24.547Z,5.70
2018-02-21T06:49:52.877Z,5.70
2018-02-21T06:52:20.411Z,6.10
2018-02-21T06:54:47.982Z,5.80
2018-02-21T06:57:15.541Z,5.90
2018-02-21T06:59:43.103Z,5.90
2018-02-21T07:02:12.312Z,5.90
2018-02-21T07:04:39.856Z,6.00
2018-02-21T07:07:07.403Z,6.20
2018-02-21T07:09:35.707Z,6.20
2018-02-21T07:12:03.336Z,6.00
2018-02-21T07:14:31.647Z,6.10
2018-02-21T07:16:59.202Z,6.10
2018-02-21T07:19:26.735Z,6.10
2018-02-21T07:21:55.113Z,6.10
2018-02-21T07:24:23.416Z,6.20
2018-02-21T07:26:50.983Z,6.40
2018-02-21T07:29:18.600Z,6.20
2018-02-21T07:31:46.184Z,6.30
2018-02-21T07:34:14.492Z,6.30
2018-02-21T07:36:42.079Z,6.30
2018-02-21T07:39:09.637Z,6.40
2018-02-21T07:41:37.177Z,6.40
2018-02-21T07:44:04.755Z,6.50
2018-02-21T07:46:32.279Z,6.80
2018-02-21T07:48:59.865Z,6.50
2018-02-21T07:51:27.409Z,6.40
2018-02-21T07:53:54.950Z,6.80
2018-02-21T07:56:23.267Z,6.80
2018-02-21T07:58:50.820Z,6.80
2018-02-21T08:01:18.344Z,6.70
2018-02-21T08:03:46.656Z,6.90
2018-02-21T08:06:14.187Z,6.80
2018-02-21T08:08:41.744Z,6.80
2018-02-21T08:11:10.059Z,6.90
2018-02-21T08:13:37.609Z,6.70
2018-02-21T08:16:05.145Z,7.20
2018-02-21T08:18:33.473Z,6.90
2018-02-21T08:21:00.999Z,6.90
2018-02-21T08:23:28.574Z,7.00
2018-02-21T08:25:56.121Z,7.00
2018-02-21T08:28:23.716Z,7.00
2018-02-21T08:30:51.218Z,7.20
2018-02-21T08:33:19.523Z,7.10
2018-02-21T08:35:47.071Z,7.20
2018-02-21T08:38:14.604Z,7.10
2018-02-21T08:40:42.187Z,7.20
2018-02-21T08:43:10.488Z,7.20
2018-02-21T08:45:38.033Z,7.50
2018-02-21T08:48:05.567Z,7.30
2018-02-21T08:50:33.891Z,7.40
2018-02-21T08:53:01.438Z,7.50
2018-02-21T08:55:28.979Z,7.60
2018-02-21T08:57:57.353Z,7.50
2018-02-21T09:00:24.876Z,7.40
2018-02-21T09:02:52.402Z,7.50
2018-02-21T09:05:19.992Z,7.50
2018-02-21T09:07:47.529Z,7.60
2018-02-21T09:10:15.065Z,7.60
2018-02-21T09:12:43.382Z,7.70
2018-02-21T09:15:10.915Z,7.70
2018-02-21T09:17:38.458Z,8.00
2018-02-21T09:20:06.767Z,7.80
2018-02-21T09:22:34.327Z,7.70
2018-02-21T09:25:01.871Z,7.90
2018-02-21T09:27:29.437Z,7.90
2018-02-21T09:29:56.977Z,8.00
2018-02-21T09:32:25.305Z,8.10
2018-02-21T09:34:52.840Z,8.30
2018-02-21T09:37:20.387Z,8.10
2018-02-21T09:39:47.928Z,8.20
2018-02-21T09:42:16.267Z,8.10
2018-02-21T09:44:43.806Z,8.20
2018-02-21T09:47:11.360Z,7.90
2018-02-21T09:49:38.921Z,7.80
2018-02-21T09:52:06.456Z,7.80
2018-02-21T09:54:34.810Z,7.70
2018-02-21T09:57:02.341Z,8.00
2018-02-21T09:59:29.909Z,7.60
2018-02-21T10:01:57.456Z,7.70
2018-02-21T10:04:25.016Z,7.60
2018-02-21T10:06:52.559Z,7.40
2018-02-21T10:09:20.121Z,7.60
2018-02-21T10:11:47.662Z,7.60
2018-02-21T10:14:16.866Z,7.70
2018-02-21T10:16:44.425Z,8.00
2018-02-21T10:19:12.000Z,7.70
2018-02-21T10:21:39.539Z,7.70
2018-02-21T10:24:07.863Z,7.70
2018-02-21T10:26:35.404Z,7.50
2018-02-21T10:29:02.974Z,7.70
2018-02-21T10:31:30.516Z,7.80
2018-02-21T10:33:58.092Z,7.80
2018-02-21T10:36:25.631Z,7.90
2018-02-21T10:38:53.945Z,7.90
2018-02-21T10:41:21.499Z,7.80
2018-02-21T10:43:49.036Z,7.90
2018-02-21T10:46:16.587Z,7.90
2018-02-21T10:48:44.949Z,8.00
2018-02-21T10:51:12.504Z,8.10
2018-02-21T10:53:40.036Z,8.10
2018-02-21T10:56:07.600Z,8.10
2018-02-21T10:58:35.133Z,8.10
2018-02-21T11:01:08.250Z,8.10
2018-02-21T11:03:35.812Z,8.10
2018-02-21T11:06:03.367Z,8.20
2018-02-21T11:08:30.906Z,8.20
2018-02-21T11:10:58.541Z,8.20
2018-02-21T11:13:26.052Z,8.30
2018-02-21T11:15:53.601Z,8.30
2018-02-21T11:18:21.149Z,8.30
2018-02-21T11:20:48.700Z,8.30
2018-02-21T11:23:16.260Z,8.20
2018-02-21T11:25:43.805Z,8.20
2018-02-21T11:28:12.127Z,8.30
2018-02-21T11:30:39.680Z,8.50
2018-02-21T11:33:07.239Z,8.30
2018-02-21T11:35:34.790Z,8.30
2018-02-21T11:38:02.351Z,8.30
2018-02-21T11:40:29.908Z,8.30
2018-02-21T11:42:57.465Z,8.40
2018-02-21T11:45:24.994Z,8.50
2018-02-21T11:47:53.314Z,8.60
2018-02-21T11:50:20.847Z,8.70
2018-02-21T11:52:49.172Z,8.60
2018-02-21T11:55:16.714Z,8.70
2018-02-21T11:57:44.311Z,8.70
2018-02-21T12:00:11.818Z,8.80
2018-02-21T12:02:39.395Z,8.90
2018-02-21T12:05:06.945Z,8.90
2018-02-21T12:07:34.475Z,8.90
2018-02-21T12:10:02.794Z,9.00
2018-02-21T12:12:30.335Z,8.80
2018-02-21T12:14:57.898Z,9.00
2018-02-21T12:17:25.455Z,9.10
2018-02-21T12:19:53.002Z,9.20
2018-02-21T12:22:21.306Z,9.20
2018-02-21T12:24:48.875Z,9.10
2018-02-21T12:27:16.425Z,9.10
2018-02-21T12:29:43.984Z,9.10
2018-02-21T12:32:17.903Z,9.20
2018-02-21T12:34:45.509Z,9.30
2018-02-21T12:37:13.062Z,9.40
2018-02-21T12:39:40.619Z,9.30
2018-02-21T12:42:08.173Z,9.40
2018-02-21T12:44:35.730Z,9.50
2018-02-21T12:47:04.097Z,9.50
2018-02-21T12:49:31.668Z,9.60
2018-02-21T12:51:59.203Z,9.70
2018-02-21T12:54:26.739Z,9.70
2018-02-21T12:56:55.055Z,9.60
2018-02-21T12:59:22.723Z,9.80
2018-02-21T13:01:50.292Z,9.60
2018-02-21T13:04:17.824Z,9.50
2018-02-21T13:06:45.375Z,9.60
2018-02-21T13:09:12.919Z,9.60
2018-02-21T13:11:41.239Z,9.50
2018-02-21T13:14:08.790Z,9.70
2018-02-21T13:16:36.357Z,9.30
2018-02-21T13:19:03.907Z,9.30
2018-02-21T13:21:31.474Z,9.20
2018-02-21T13:23:59.013Z,9.10
2018-02-21T13:26:27.352Z,9.10
2018-02-21T13:28:54.883Z,9.10
2018-02-21T13:31:22.429Z,9.10
2018-02-21T13:33:49.993Z,9.10
2018-02-21T13:36:17.531Z,9.00
2018-02-21T13:38:45.091Z,9.10
2018-02-21T13:41:13.397Z,9.30
2018-02-21T13:43:40.947Z,9.40
2018-02-21T13:46:08.480Z,9.40
2018-02-21T13:48:36.790Z,9.50
2018-02-21T13:51:04.331Z,9.50
2018-02-21T13:53:31.902Z,9.50
2018-02-21T13:55:59.428Z,9.60
2018-02-21T13:58:27.754Z,9.50
2018-02-21T14:00:55.287Z,9.50
2018-02-21T14:03:22.835Z,9.50
2018-02-21T14:05:51.128Z,9.50
2018-02-21T14:08:18.667Z,9.70
2018-02-21T14:10:46.993Z,9.70
2018-02-21T14:13:14.532Z,9.70
2018-02-21T14:15:42.082Z,9.70
2018-02-21T14:18:09.624Z,9.80
2018-02-21T14:20:37.231Z,9.80
2018-02-21T14:23:04.757Z,9.80
2018-02-21T14:25:33.068Z,9.80
2018-02-21T14:28:00.615Z,9.90
2018-02-21T14:30:28.177Z,9.80
2018-02-21T14:32:55.703Z,9.70
2018-02-21T14:35:23.283Z,9.60
